createdAt,value
2018-04-12T00:02:30.283Z,93639.52
2018-04-12T00:05:04.328Z,93633.22
2018-04-12T00:07:37.584Z,93635.59
2018-04-12T00:10:10.869Z,93625.68
2018-04-12T00:12:44.125Z,93626.22
2018-04-12T00:15:17.395Z,93617.77
2018-04-12T00:17:50.652Z,93615.06
2018-04-12T00:20:23.933Z,93622.97
2018-04-12T00:22:57.179Z,93614.00
2018-04-12T00:25:30.465Z,93607.66
2018-04-12T00:28:03.720Z,93607.80
2018-04-12T00:30:37.000Z,93594.67
2018-04-12T00:33:10.255Z,93585.39
2018-04-12T00:35:43.539Z,93582.05
2018-04-12T00:38:40.839Z,93568.77
2018-04-12T00:41:14.096Z,93567.97
2018-04-12T00:43:47.384Z,93568.91
2018-04-12T00:46:20.639Z,93561.94
2018-04-12T00:48:53.908Z,93563.28
2018-04-12T00:51:27.164Z,93563.82
2018-04-12T00:54:06.355Z,93556.05
2018-04-12T00:56:39.611Z,93562.34
2018-04-12T00:59:12.896Z,93565.80
2018-04-12T01:01:46.154Z,93564.06
2018-04-12T01:04:20.461Z,93562.19
2018-04-12T01:06:53.719Z,93557.23
2018-04-12T01:09:27.180Z,93556.96
2018-04-12T01:12:00.443Z,93550.91
2018-04-12T01:14:33.715Z,93548.49
2018-04-12T01:17:06.976Z,93546.05
2018-04-12T01:19:40.248Z,93548.59
2018-04-12T01:22:14.272Z,93555.53
2018-04-12T01:24:47.542Z,93547.22
2018-04-12T01:27:21.568Z,93540.92
2018-04-12T01:29:55.608Z,93533.39
2018-04-12T01:32:28.871Z,93539.55
2018-04-12T01:35:02.920Z,93524.16
2018-04-12T01:37:36.175Z,93526.16
2018-04-12T01:40:10.215Z,93542.36
2018-04-12T01:42:43.481Z,93537.64
2018-04-12T01:45:16.752Z,93552.33
2018-04-12T01:47:50.026Z,93551.66
2018-04-12T01:50:23.286Z,93550.98
2018-04-12T01:52:56.570Z,93551.89
2018-04-12T01:55:29.826Z,93553.48
2018-04-12T01:58:03.099Z,93544.65
2018-04-12T02:00:36.359Z,93546.25
2018-04-12T02:03:09.652Z,93551.88
2018-04-12T02:06:07.636Z,93555.31
2018-04-12T02:08:40.907Z,93548.08
2018-04-12T02:11:14.172Z,93551.95
2018-04-12T02:13:48.220Z,93546.43
2018-04-12T02:16:21.479Z,93556.33
2018-04-12T02:18:55.520Z,93546.68
2018-04-12T02:21:28.780Z,93545.97
2018-04-12T02:24:02.811Z,93548.23
2018-04-12T02:26:36.079Z,93557.33
2018-04-12T02:29:09.349Z,93554.65
2018-04-12T02:31:42.618Z,93559.43
2018-04-12T02:34:15.885Z,93565.98
2018-04-12T02:36:49.147Z,93562.91
2018-04-12T02:39:22.423Z,93567.84
2018-04-12T02:41:55.687Z,93563.03
2018-04-12T02:44:28.969Z,93563.70
2018-04-12T02:47:02.248Z,93555.14
2018-04-12T02:49:36.256Z,93552.59
2018-04-12T02:52:10.290Z,93551.25
2018-04-12T02:54:43.560Z,93557.67
2018-04-12T02:57:17.594Z,93556.33
2018-04-12T02:59:50.854Z,93560.22
2018-04-12T03:02:24.123Z,93545.50
2018-04-12T03:04:57.376Z,93548.31
2018-04-12T03:07:30.652Z,93523.16
2018-04-12T03:10:04.668Z,93512.86
2018-04-12T03:12:38.705Z,93513.13
2018-04-12T03:15:11.959Z,93510.44
2018-04-12T03:17:45.997Z,93508.17
2018-04-12T03:20:19.246Z,93496.36
2018-04-12T03:22:52.519Z,93498.13
2018-04-12T03:25:25.783Z,93495.86
2018-04-12T03:27:59.064Z,93500.91
2018-04-12T03:30:32.323Z,93489.28
2018-04-12T03:33:05.609Z,93486.09
2018-04-12T03:35:38.859Z,93488.34
2018-04-12T03:38:31.536Z,93495.03
2018-04-12T03:41:04.818Z,93492.34
2018-04-12T03:43:38.071Z,93483.52
2018-04-12T03:46:12.116Z,93489.27
2018-04-12T03:48:45.424Z,93484.58
2018-04-12T03:51:19.405Z,93493.80
2018-04-12T03:53:52.660Z,93494.47
2018-04-12T03:56:25.940Z,93492.56
2018-04-12T03:58:59.191Z,93488.41
2018-04-12T04:01:32.463Z,93495.36
2018-04-12T04:04:06.479Z,93506.84
2018-04-12T04:06:39.758Z,93520.04
2018-04-12T04:09:13.780Z,93517.89
2018-04-12T04:11:47.815Z,93511.33
2018-04-12T04:14:38.936Z,93513.05
2018-04-12T04:17:30.028Z,93493.63
2018-04-12T04:20:21.924Z,93498.98
2018-04-12T04:22:55.201Z,93497.64
2018-04-12T04:25:28.455Z,93495.91
2018-04-12T04:28:01.726Z,93499.38
2018-04-12T04:30:35.743Z,93497.28
2018-04-12T04:33:09.786Z,93504.77
2018-04-12T04:35:43.044Z,93512.66
2018-04-12T04:38:16.319Z,93514.00
2018-04-12T04:40:49.576Z,93509.33
2018-04-12T04:43:22.852Z,93524.03
2018-04-12T04:45:56.104Z,93541.81
2018-04-12T04:48:29.377Z,93537.94
2018-04-12T04:51:02.631Z,93534.59
2018-04-12T04:53:35.911Z,93537.39
2018-04-12T04:56:09.176Z,93543.40
2018-04-12T04:58:42.453Z,93543.40
2018-04-12T05:01:15.707Z,93546.17
2018-04-12T05:03:48.980Z,93547.91
2018-04-12T05:06:23.005Z,93541.75
2018-04-12T05:08:56.275Z,93542.94
2018-04-12T05:11:30.301Z,93545.87
2018-04-12T05:14:04.336Z,93553.09
2018-04-12T05:16:37.594Z,93547.75
2018-04-12T05:19:11.639Z,93550.82
2018-04-12T05:21:44.887Z,93558.84
2018-04-12T05:24:18.172Z,93552.69
2018-04-12T05:26:51.436Z,93550.16
2018-04-12T05:29:24.717Z,93546.30
2018-04-12T05:31:57.963Z,93548.84
2018-04-12T05:34:31.273Z,93546.70
2018-04-12T05:37:10.415Z,93546.62
2018-04-12T05:39:43.684Z,93541.28
2018-04-12T05:42:16.960Z,93540.23
2018-04-12T05:44:50.245Z,93543.75
2018-04-12T05:47:23.491Z,93550.18
2018-04-12T05:49:56.763Z,93549.93
2018-04-12T05:52:30.787Z,93551.72
2018-04-12T05:55:04.059Z,93541.04
2018-04-12T05:57:37.329Z,93538.27
2018-04-12T06:00:10.589Z,93526.78
2018-04-12T06:02:43.843Z,93537.66
2018-04-12T06:05:17.119Z,93554.66
2018-04-12T06:07:50.379Z,93544.54
2018-04-12T06:10:23.646Z,93532.38
2018-04-12T06:12:57.673Z,93538.84
2018-04-12T06:15:30.943Z,93551.17
2018-04-12T06:18:04.191Z,93545.86
2018-04-12T06:20:37.479Z,93544.92
2018-04-12T06:23:10.733Z,93550.32
2018-04-12T06:25:44.775Z,93560.84
2018-04-12T06:28:18.032Z,93569.81
2018-04-12T06:30:52.073Z,93561.28
2018-04-12T06:33:25.328Z,93562.89
2018-04-12T06:35:58.615Z,93578.06
2018-04-12T06:38:31.869Z,93576.73
2018-04-12T06:41:05.136Z,93583.45
2018-04-12T06:43:38.396Z,93577.33
2018-04-12T06:46:11.681Z,93574.67
2018-04-12T06:48:44.946Z,93567.33
2018-04-12T06:51:18.229Z,93563.17
2018-04-12T06:53:51.563Z,93553.11
2018-04-12T06:56:24.804Z,93561.31
2018-04-12T06:58:58.087Z,93557.44
2018-04-12T07:01:32.106Z,93566.41
2018-04-12T07:04:05.701Z,93572.73
2018-04-12T07:06:38.955Z,93569.68
2018-04-12T07:09:12.243Z,93580.02
2018-04-12T07:11:45.504Z,93578.13
2018-04-12T07:14:18.776Z,93578.25
2018-04-12T07:16:52.040Z,93574.24
2018-04-12T07:19:25.315Z,93580.00
2018-04-12T07:21:58.574Z,93583.49
2018-04-12T07:24:31.861Z,93597.59
2018-04-12T07:27:05.163Z,93593.13
2018-04-12T07:29:38.453Z,93595.01
2018-04-12T07:32:11.707Z,93606.83
2018-04-12T07:34:44.980Z,93585.16
2018-04-12T07:37:18.232Z,93578.58
2018-04-12T07:39:51.504Z,93600.34
2018-04-12T07:42:25.527Z,93589.84
2018-04-12T07:44:58.813Z,93595.10
2018-04-12T07:47:32.061Z,93595.48
2018-04-12T07:50:05.325Z,93598.56
2018-04-12T07:52:38.595Z,93616.41
2018-04-12T07:55:11.874Z,93635.20
2018-04-12T07:57:45.129Z,93648.74
2018-04-12T08:00:19.163Z,93639.31
2018-04-12T08:02:52.428Z,93636.31
2018-04-12T08:05:25.708Z,93624.48
2018-04-12T08:07:58.981Z,93632.13
2018-04-12T08:10:32.223Z,93634.94
2018-04-12T08:13:05.480Z,93637.84
2018-04-12T08:15:38.760Z,93639.97
2018-04-12T08:18:12.798Z,93639.67
2018-04-12T08:20:46.051Z,93645.02
2018-04-12T08:23:19.332Z,93649.70
2018-04-12T08:25:52.595Z,93637.29
2018-04-12T08:28:25.867Z,93643.08
2018-04-12T08:30:59.120Z,93645.75
2018-04-12T08:33:32.393Z,93647.62
2018-04-12T08:36:05.657Z,93656.06
2018-04-12T08:38:38.932Z,93655.92
2018-04-12T08:41:12.184Z,93652.81
2018-04-12T08:43:45.459Z,93653.30
2018-04-12T08:46:18.708Z,93647.58
2018-04-12T08:48:52.756Z,93643.34
2018-04-12T08:51:26.012Z,93644.90
2018-04-12T08:54:00.047Z,93644.33
2018-04-12T08:56:33.304Z,93651.44
2018-04-12T08:59:07.344Z,93647.03
2018-04-12T09:01:40.603Z,93658.69
2018-04-12T09:04:13.867Z,93655.13
2018-04-12T09:06:47.151Z,93656.97
2018-04-12T09:09:20.405Z,93664.22
2018-04-12T09:11:53.661Z,93659.86
2018-04-12T09:14:26.927Z,93656.58
2018-04-12T09:17:00.176Z,93655.48
2018-04-12T09:19:34.221Z,93657.27
2018-04-12T09:22:07.489Z,93657.78
2018-04-12T09:24:41.531Z,93662.05
2018-04-12T09:27:14.786Z,93660.52
2018-04-12T09:29:48.827Z,93653.57
2018-04-12T09:32:22.088Z,93652.98
2018-04-12T09:34:56.129Z,93644.53
2018-04-12T09:37:29.395Z,93641.47
2018-04-12T09:40:03.434Z,93640.52
2018-04-12T09:42:36.692Z,93650.27
2018-04-12T09:45:10.753Z,93651.17
2018-04-12T09:47:44.004Z,93648.29
2018-04-12T09:50:18.049Z,93645.58
2018-04-12T09:52:51.309Z,93648.19
2018-04-12T09:55:25.348Z,93650.55
2018-04-12T09:57:58.606Z,93654.07
2018-04-12T10:00:31.872Z,93661.02
2018-04-12T10:03:10.734Z,93664.28
2018-04-12T10:05:49.593Z,93671.69
2018-04-12T10:08:27.835Z,93676.55
2018-04-12T10:11:01.104Z,93681.59
2018-04-12T10:13:34.355Z,93699.63
2018-04-12T10:16:08.435Z,93686.05
2018-04-12T10:18:41.715Z,93692.97
2018-04-12T10:21:14.980Z,93692.59
2018-04-12T10:23:48.235Z,93695.14
2018-04-12T10:26:21.513Z,93709.20
2018-04-12T10:28:55.546Z,93704.65
2018-04-12T10:31:28.813Z,93700.17
2018-04-12T10:34:02.066Z,93702.78
2018-04-12T10:36:35.343Z,93703.27
2018-04-12T10:39:09.372Z,93709.52
2018-04-12T10:41:42.697Z,93701.06
2018-04-12T10:44:16.679Z,93706.40
2018-04-12T10:46:49.966Z,93698.59
2018-04-12T10:49:23.985Z,93708.83
2018-04-12T10:51:57.318Z,93713.39
2018-04-12T10:54:31.279Z,93705.15
2018-04-12T10:57:04.556Z,93694.02
2018-04-12T10:59:38.606Z,93697.25
2018-04-12T11:02:11.864Z,93695.98
2018-04-12T11:04:45.137Z,93695.59
2018-04-12T11:07:18.393Z,93693.23
2018-04-12T11:09:51.675Z,93696.46
2018-04-12T11:12:24.928Z,93704.22
2018-04-12T11:14:58.200Z,93709.42
2018-04-12T11:17:31.452Z,93705.02
2018-04-12T11:20:04.732Z,93700.92
2018-04-12T11:22:38.753Z,93690.64
2018-04-12T11:25:12.020Z,93694.80
2018-04-12T11:27:45.269Z,93716.01
2018-04-12T11:30:18.553Z,93709.59
2018-04-12T11:32:51.813Z,93710.58
2018-04-12T11:35:25.852Z,93706.68
2018-04-12T11:37:59.108Z,93694.34
2018-04-12T11:40:33.148Z,93694.84
2018-04-12T11:43:06.399Z,93687.92
2018-04-12T11:45:39.671Z,93689.64
2018-04-12T11:48:12.948Z,93698.36
2018-04-12T11:50:46.196Z,93700.91
2018-04-12T11:53:19.456Z,93705.93
2018-04-12T11:55:52.751Z,93702.30
2018-04-12T11:58:25.985Z,93705.63
2018-04-12T12:00:59.250Z,93681.75
2018-04-12T12:03:32.512Z,93706.84
2018-04-12T12:06:05.790Z,93689.81
2018-04-12T12:08:39.056Z,93693.77
2018-04-12T12:11:13.099Z,93691.39
2018-04-12T12:13:46.360Z,93701.77
2018-04-12T12:16:20.408Z,93701.27
2018-04-12T12:18:53.675Z,93704.80
2018-04-12T12:21:26.942Z,93696.45
2018-04-12T12:24:00.212Z,93695.15
2018-04-12T12:26:33.492Z,93685.55
2018-04-12T12:29:06.768Z,93682.28
2018-04-12T12:31:40.020Z,93678.53
2018-04-12T12:34:13.289Z,93672.37
2018-04-12T12:36:46.552Z,93678.92
2018-04-12T12:39:19.827Z,93680.67
2018-04-12T12:41:53.860Z,93675.01
2018-04-12T12:44:27.140Z,93688.75
2018-04-12T12:47:00.393Z,93677.02
2018-04-12T12:49:33.668Z,93672.61
2018-04-12T12:52:06.912Z,93672.94
2018-04-12T12:54:40.960Z,93674.45
2018-04-12T12:57:14.207Z,93678.92
2018-04-12T12:59:48.252Z,93674.44
2018-04-12T13:02:21.516Z,93677.94
2018-04-12T13:04:54.799Z,93678.91
2018-04-12T13:07:28.057Z,93683.89
2018-04-12T13:10:01.391Z,93680.36
2018-04-12T13:12:34.601Z,93681.41
2018-04-12T13:15:07.880Z,93685.42
2018-04-12T13:17:41.136Z,93679.65
2018-04-12T13:20:14.412Z,93684.94
2018-04-12T13:22:47.673Z,93678.83
2018-04-12T13:25:20.947Z,93686.05
2018-04-12T13:27:54.211Z,93681.20
2018-04-12T13:30:27.478Z,93682.02
2018-04-12T13:33:00.780Z,93690.94
2018-04-12T13:35:34.008Z,93680.23
2018-04-12T13:38:07.267Z,93683.94
2018-04-12T13:40:40.549Z,93681.67
2018-04-12T13:43:13.805Z,93678.48
2018-04-12T13:45:47.082Z,93677.23
2018-04-12T13:48:20.334Z,93680.91
2018-04-12T13:50:53.613Z,93689.83
2018-04-12T13:53:27.641Z,93691.33
2018-04-12T13:56:00.907Z,93689.56
2018-04-12T13:58:34.157Z,93679.61
2018-04-12T14:01:07.429Z,93679.46
2018-04-12T14:03:40.693Z,93682.55
2018-04-12T14:06:14.740Z,93667.77
2018-04-12T14:08:47.985Z,93666.15
2018-04-12T14:11:21.401Z,93660.34
2018-04-12T14:13:55.425Z,93658.30
2018-04-12T14:16:28.705Z,93665.73
2018-04-12T14:19:01.961Z,93670.78
2018-04-12T14:21:35.237Z,93672.30
2018-04-12T14:24:08.505Z,93666.34
2018-04-12T14:26:41.791Z,93669.88
2018-04-12T14:29:18.597Z,93670.81
2018-04-12T14:31:51.866Z,93680.58
2018-04-12T14:34:25.168Z,93681.20
2018-04-12T14:36:58.431Z,93682.84
2018-04-12T14:39:33.671Z,93681.69
2018-04-12T14:42:07.697Z,93686.72
2018-04-12T14:44:41.755Z,93678.59
2018-04-12T14:47:15.035Z,93673.03
2018-04-12T14:49:48.300Z,93661.45
2018-04-12T14:52:21.564Z,93669.95
2018-04-12T14:54:54.871Z,93670.14
2018-04-12T14:57:28.134Z,93677.78
2018-04-12T15:00:01.409Z,93675.84
2018-04-12T15:02:34.673Z,93680.00
2018-04-12T15:05:07.949Z,93674.30
2018-04-12T15:07:41.972Z,93671.80
2018-04-12T15:10:15.250Z,93678.04
2018-04-12T15:12:48.505Z,93668.53
2018-04-12T15:15:21.772Z,93665.16
2018-04-12T15:17:55.040Z,93664.38
2018-04-12T15:20:29.092Z,93665.25
2018-04-12T15:23:02.359Z,93660.59
2018-04-12T15:25:35.635Z,93674.22
2018-04-12T15:28:08.929Z,93675.80
2018-04-12T15:30:42.970Z,93673.86
2018-04-12T15:33:16.228Z,93677.14
2018-04-12T15:35:50.296Z,93674.82
2018-04-12T15:38:23.564Z,93680.13
2018-04-12T15:40:56.849Z,93666.45
2018-04-12T15:43:30.109Z,93665.48
2018-04-12T15:46:03.751Z,93671.47
2018-04-12T15:48:37.013Z,93671.83
2018-04-12T15:51:10.289Z,93668.75
2018-04-12T15:53:43.553Z,93666.16
2018-04-12T15:56:16.830Z,93678.88
2018-04-12T15:58:50.090Z,93678.77
2018-04-12T16:01:23.633Z,93678.08
2018-04-12T16:03:56.925Z,93679.53
2018-04-12T16:06:30.427Z,93690.05
2018-04-12T16:09:03.825Z,93689.80
2018-04-12T16:11:37.190Z,93704.05
2018-04-12T16:14:11.224Z,93697.95
2018-04-12T16:16:44.498Z,93704.32
2018-04-12T16:19:18.526Z,93699.75
2018-04-12T16:21:51.805Z,93694.31
2018-04-12T16:24:25.830Z,93699.40
2018-04-12T16:27:01.465Z,93699.16
2018-04-12T16:29:35.511Z,93696.20
2018-04-12T16:32:08.793Z,93688.81
2018-04-12T16:34:42.049Z,93698.97
2018-04-12T16:37:15.319Z,93687.17
2018-04-12T16:39:48.576Z,93685.81
2018-04-12T16:42:21.852Z,93689.89
2018-04-12T16:44:55.128Z,93685.36
2018-04-12T16:47:29.165Z,93680.31
2018-04-12T16:50:02.425Z,93684.86
2018-04-12T16:52:35.701Z,93687.73
2018-04-12T16:55:08.956Z,93684.86
2018-04-12T16:57:42.349Z,93687.80
2018-04-12T17:00:15.693Z,93686.45
2018-04-12T17:02:48.976Z,93690.22
2018-04-12T17:05:22.245Z,93680.27
2018-04-12T17:07:55.516Z,93684.59
2018-04-12T17:10:28.780Z,93686.14
2018-04-12T17:13:02.064Z,93683.98
2018-04-12T17:15:35.325Z,93688.14
2018-04-12T17:18:08.614Z,93685.84
2018-04-12T17:20:41.865Z,93685.79
2018-04-12T17:23:15.186Z,93682.68
2018-04-12T17:25:48.440Z,93686.23
2018-04-12T17:28:21.714Z,93681.70
2018-04-12T17:30:54.960Z,93690.92
2018-04-12T17:33:28.248Z,93678.42
2018-04-12T17:36:02.283Z,93683.00
2018-04-12T17:38:35.570Z,93676.69
2018-04-12T17:41:08.828Z,93670.55
2018-04-12T17:43:42.107Z,93670.66
2018-04-12T17:46:15.360Z,93664.91
2018-04-12T17:48:48.649Z,93664.71
2018-04-12T17:51:22.388Z,93674.52
2018-04-12T17:53:55.660Z,93676.48
2018-04-12T17:56:28.915Z,93685.59
2018-04-12T17:59:02.197Z,93685.23
2018-04-12T18:01:35.444Z,93683.36
2018-04-12T18:04:08.719Z,93683.16
2018-04-12T18:06:42.005Z,93684.70
2018-04-12T18:09:15.258Z,93688.37
2018-04-12T18:11:48.538Z,93688.20
2018-04-12T18:14:21.803Z,93683.95
2018-04-12T18:16:55.077Z,93687.55
2018-04-12T18:19:28.340Z,93680.59
2018-04-12T18:22:01.625Z,93689.59
2018-04-12T18:24:35.815Z,93694.89
2018-04-12T18:27:09.100Z,93687.12
2018-04-12T18:29:42.360Z,93685.98
2018-04-12T18:32:16.393Z,93687.66
2018-04-12T18:34:49.651Z,93679.76
2018-04-12T18:37:22.928Z,93678.20
2018-04-12T18:39:56.244Z,93682.55
2018-04-12T18:42:29.507Z,93679.41
2018-04-12T18:45:02.770Z,93686.72
2018-04-12T18:47:36.060Z,93689.68
2018-04-12T18:50:09.313Z,93693.88
2018-04-12T18:52:42.589Z,93697.92
2018-04-12T18:55:15.839Z,93692.27
2018-04-12T18:57:49.129Z,93695.91
2018-04-12T19:00:22.382Z,93697.41
2018-04-12T19:02:55.750Z,93695.30
2018-04-12T19:05:29.003Z,93698.70
2018-04-12T19:08:02.291Z,93702.92
2018-04-12T19:10:36.322Z,93704.45
2018-04-12T19:13:09.603Z,93702.59
2018-04-12T19:15:43.616Z,93708.57
2018-04-12T19:18:17.665Z,93712.11
2018-04-12T19:20:50.926Z,93715.94
2018-04-12T19:23:24.214Z,93715.67
2018-04-12T19:25:58.255Z,93718.86
2018-04-12T19:28:31.533Z,93713.56
2018-04-12T19:31:04.775Z,93716.09
2018-04-12T19:33:38.055Z,93712.77
2018-04-12T19:36:11.315Z,93704.70
2018-04-12T19:38:44.606Z,93710.38
2018-04-12T19:41:17.852Z,93709.03
2018-04-12T19:43:51.125Z,93708.54
2018-04-12T19:46:24.368Z,93711.97
2018-04-12T19:48:58.408Z,93710.31
2018-04-12T19:51:31.671Z,93713.50
2018-04-12T19:54:04.936Z,93714.77
2018-04-12T19:56:38.184Z,93711.72
2018-04-12T19:59:11.460Z,93709.16
2018-04-12T20:01:45.500Z,93709.31
2018-04-12T20:04:18.767Z,93705.52
2018-04-12T20:06:52.059Z,93706.62
2018-04-12T20:09:25.331Z,93708.06
2018-04-12T20:11:58.636Z,93706.70
2018-04-12T20:14:32.665Z,93697.91
2018-04-12T20:17:05.971Z,93708.12
2018-04-12T20:19:39.228Z,93707.69
2018-04-12T20:22:12.500Z,93709.59
2018-04-12T20:24:45.753Z,93707.95
2018-04-12T20:27:19.045Z,93709.73
2018-04-12T20:29:52.296Z,93712.67
2018-04-12T20:32:25.569Z,93713.91
2018-04-12T20:34:58.838Z,93713.78
2018-04-12T20:37:32.116Z,93713.92
2018-04-12T20:40:05.367Z,93708.68
2018-04-12T20:42:38.675Z,93706.39
2018-04-12T20:45:12.701Z,93699.00
2018-04-12T20:47:46.318Z,93709.77
2018-04-12T20:50:19.569Z,93699.97
2018-04-12T20:52:53.725Z,93704.40
2018-04-12T20:55:26.978Z,93705.91
2018-04-12T20:58:00.282Z,93716.30
2018-04-12T21:00:34.299Z,93714.42
2018-04-12T21:03:07.608Z,93715.27
2018-04-12T21:05:40.856Z,93717.83
2018-04-12T21:08:14.150Z,93716.39
2018-04-12T21:10:47.397Z,93712.25
2018-04-12T21:13:20.684Z,93709.16
2018-04-12T21:15:53.952Z,93707.03
2018-04-12T21:18:27.221Z,93718.06
2018-04-12T21:21:00.461Z,93710.02
2018-04-12T21:23:33.743Z,93715.14
2018-04-12T21:26:06.996Z,93713.70
2018-04-12T21:28:40.273Z,93712.35
2018-04-12T21:31:13.528Z,93718.16
2018-04-12T21:33:47.561Z,93718.72
2018-04-12T21:36:20.807Z,93717.39
2018-04-12T21:38:54.084Z,93721.67
2018-04-12T21:41:27.344Z,93715.91
2018-04-12T21:44:00.619Z,93721.16
2018-04-12T21:46:33.876Z,93718.77
2018-04-12T21:49:07.166Z,93715.66
2018-04-12T21:51:40.416Z,93709.75
2018-04-12T21:54:13.683Z,93718.09
2018-04-12T21:56:47.707Z,93719.04
2018-04-12T21:59:21.748Z,93716.62
2018-04-12T22:01:55.003Z,93717.16
2018-04-12T22:04:29.027Z,93722.14
2018-04-12T22:07:02.311Z,93717.59
2018-04-12T22:09:36.360Z,93715.96
2018-04-12T22:12:09.669Z,93715.84
2018-04-12T22:14:42.917Z,93712.50
2018-04-12T22:17:17.002Z,93712.10
2018-04-12T22:19:50.259Z,93716.78
2018-04-12T22:22:23.532Z,93719.87
2018-04-12T22:24:56.792Z,93710.22
2018-04-12T22:27:30.064Z,93713.98
2018-04-12T22:30:03.316Z,93717.86
2018-04-12T22:32:36.581Z,93714.38
2018-04-12T22:35:10.615Z,93715.31
2018-04-12T22:37:43.883Z,93715.30
2018-04-12T22:40:17.144Z,93718.38
2018-04-12T22:42:50.417Z,93714.09
2018-04-12T22:45:23.671Z,93720.69
2018-04-12T22:47:56.964Z,93717.33
2018-04-12T22:50:30.983Z,93723.64
2018-04-12T22:53:04.253Z,93713.69
2018-04-12T22:55:37.500Z,93720.95
2018-04-12T22:58:10.771Z,93715.58
2018-04-12T23:00:44.028Z,93715.83
2018-04-12T23:03:17.305Z,93713.30
2018-04-12T23:05:50.572Z,93710.19
2018-04-12T23:08:23.839Z,93708.72
2018-04-12T23:10:57.860Z,93706.95
2018-04-12T23:13:31.138Z,93703.19
2018-04-12T23:16:04.391Z,93700.25
2018-04-12T23:18:37.659Z,93699.31
2018-04-12T23:21:10.924Z,93711.52
2018-04-12T23:23:44.964Z,93708.81
2018-04-12T23:26:18.224Z,93711.23
2018-04-12T23:28:51.487Z,93702.11
2018-04-12T23:31:24.748Z,93700.88
2018-04-12T23:33:58.024Z,93711.08
2018-04-12T23:36:31.285Z,93713.63
2018-04-12T23:39:04.566Z,93711.75
2018-04-12T23:41:37.822Z,93712.55
2018-04-12T23:44:11.101Z,93714.83
2018-04-12T23:46:44.347Z,93716.05
2018-04-12T23:49:17.627Z,93713.20
2018-04-12T23:51:50.888Z,93708.50
2018-04-12T23:54:24.163Z,93709.70
2018-04-12T23:56:57.420Z,93708.34
2018-04-12T23:59:30.696Z,93704.82
